Terminal Aerodrome Forecast
Issued by NWS

Home | Current Version | Previous Version | Text Only | Print | Product List | Glossary On
Versions: 1 2 3 4 5 6 7 8 9 10 11 12 13 14 15 16 17
418
FTUS45 KABQ 071126
TAFLVS
TAF
KLVS 071126Z 0712/0812 22013KT P6SM FEW050
     FM071500 26012G20KT P6SM SCT250
     FM071900 29018G30KT P6SM SCT250
     FM080000 12010KT P6SM FEW030
     FM080900 15009KT P6SM BKN010=

USA.gov is the U.S. government's official web portal to all federal, state and local government web resources and services.